Time;durP1;ratioP1;P1;durP2;ratioP2;P2;SDS_P1;SDS_P2;PMS_P1;PMS_P2;Temp;Humidity;BMP_temperature;BMP_pressure;BME280_temperature;BME280_humidity;BME280_pressure;Samples;Min_cycle;Max_cycle;Signal;HPM_P1;HPM_P2
2021/06/13 00:01:50;;;;;;;15.65;11.50;;;;;;;12.96;83.21;98665.41;2169405;82;20909;-78
2021/06/13 00:04:51;;;;;;;12.10;11.00;;;;;;;12.96;83.22;98671.08;2169638;82;20925;-79
2021/06/13 00:07:52;;;;;;;14.80;12.18;;;;;;;12.95;83.38;98674.14;2169476;82;20967;-79
2021/06/13 00:10:54;;;;;;;12.82;10.48;;;;;;;12.95;83.11;98679.38;2169578;82;20936;-78
2021/06/13 00:13:55;;;;;;;12.58;10.90;;;;;;;12.97;83.26;98674.14;2162667;79;21010;-78
2021/06/13 00:16:56;;;;;;;16.10;11.33;;;;;;;12.95;83.05;98678.07;2147805;83;20947;-79
2021/06/13 00:19:57;;;;;;;14.25;10.23;;;;;;;12.95;83.23;98677.20;2148051;83;20924;-78
2021/06/13 00:22:58;;;;;;;17.67;10.70;;;;;;;12.96;83.20;98678.50;2147792;83;20973;-78
2021/06/13 00:25:59;;;;;;;11.80;10.63;;;;;;;12.96;83.74;98694.66;2147793;83;20959;-78
2021/06/13 00:29:00;;;;;;;10.35;9.13;;;;;;;12.95;83.18;98691.61;2147820;83;20939;-78
2021/06/13 00:32:01;;;;;;;10.85;8.78;;;;;;;12.92;83.75;98692.48;2147686;83;20912;-79
2021/06/13 00:35:01;;;;;;;13.90;9.80;;;;;;;12.89;83.58;98687.67;2147819;83;20928;-78
2021/06/13 00:38:03;;;;;;;11.73;8.40;;;;;;;12.86;83.35;98683.75;2147828;83;20932;-78
2021/06/13 00:41:03;;;;;;;10.25;9.18;;;;;;;12.85;83.59;98682.00;2147446;83;20955;-78
2021/06/13 00:44:04;;;;;;;15.10;8.60;;;;;;;12.83;83.36;98683.31;2147578;82;21378;-78
2021/06/13 00:47:05;;;;;;;18.77;10.10;;;;;;;12.82;83.04;98685.94;2147677;83;20955;-78
2021/06/13 00:50:06;;;;;;;13.70;8.43;;;;;;;12.81;83.18;98685.06;2147715;83;20928;-80
2021/06/13 00:53:07;;;;;;;15.08;8.65;;;;;;;12.77;82.89;98685.93;2147810;83;20888;-78
2021/06/13 00:56:08;;;;;;;12.43;9.10;;;;;;;12.73;82.91;98684.19;2147662;83;21181;-78
2021/06/13 00:59:09;;;;;;;14.33;9.50;;;;;;;12.69;83.46;98687.23;2147825;83;20932;-78
2021/06/13 01:02:10;;;;;;;13.53;9.10;;;;;;;12.67;83.59;98689.41;2147640;83;20937;-79
2021/06/13 01:05:11;;;;;;;17.47;9.47;;;;;;;12.66;83.24;98681.13;2147752;83;20939;-78
2021/06/13 01:08:13;;;;;;;10.98;9.08;;;;;;;12.64;83.67;98690.28;2147682;83;20983;-78
2021/06/13 01:11:14;;;;;;;11.25;9.43;;;;;;;12.58;83.98;98692.89;2147774;83;20936;-78
2021/06/13 01:14:15;;;;;;;10.82;9.03;;;;;;;12.54;84.06;98696.38;2156957;82;21016;-78
2021/06/13 01:17:16;;;;;;;16.00;10.27;;;;;;;12.48;83.83;98694.19;2175666;82;20996;-78
2021/06/13 01:20:19;;;;;;;15.60;9.78;;;;;;;12.41;84.28;98695.48;2175931;82;20935;-78
2021/06/13 01:23:19;;;;;;;14.13;8.83;;;;;;;12.36;84.23;98705.50;2175784;82;21001;-79
2021/06/13 01:26:22;;;;;;;11.20;8.08;;;;;;;12.32;83.94;98690.66;2175831;82;20968;-79
2021/06/13 01:29:22;;;;;;;13.03;8.80;;;;;;;12.27;84.15;98705.48;2175789;82;20993;-80
2021/06/13 01:32:23;;;;;;;13.28;9.65;;;;;;;12.22;84.65;98704.16;2176005;82;20933;-79
2021/06/13 01:35:24;;;;;;;11.15;8.45;;;;;;;12.17;84.27;98705.02;2175947;81;20936;-78
2021/06/13 01:38:25;;;;;;;10.23;8.93;;;;;;;12.11;84.47;98709.33;2176047;82;20996;-78
2021/06/13 01:41:26;;;;;;;10.90;8.20;;;;;;;12.06;84.42;98698.41;2175660;82;20999;-79
2021/06/13 01:44:27;;;;;;;14.60;9.20;;;;;;;12.02;84.62;98702.75;2175833;82;21000;-79
2021/06/13 01:47:28;;;;;;;13.35;7.92;;;;;;;12.00;84.54;98702.31;2176252;82;20948;-81
2021/06/13 01:50:29;;;;;;;16.33;9.53;;;;;;;11.95;84.52;98699.67;2176288;81;20996;-80
2021/06/13 01:53:30;;;;;;;14.53;8.57;;;;;;;11.89;84.29;98700.08;2176224;81;20920;-81
2021/06/13 01:56:31;;;;;;;11.03;9.18;;;;;;;11.85;84.20;98710.97;2176101;82;20960;-77
2021/06/13 01:59:33;;;;;;;16.20;8.53;;;;;;;11.81;84.66;98702.66;2175853;82;20939;-78
2021/06/13 02:02:34;;;;;;;12.68;8.98;;;;;;;11.77;84.45;98713.55;2175938;82;20940;-79
2021/06/13 02:05:35;;;;;;;14.37;9.33;;;;;;;11.74;84.71;98714.80;2175991;82;21335;-78
2021/06/13 02:08:36;;;;;;;12.23;8.90;;;;;;;11.72;84.54;98716.97;2175890;82;20973;-78
2021/06/13 02:11:37;;;;;;;17.83;9.27;;;;;;;11.68;84.55;98719.13;2175969;81;20909;-78
2021/06/13 02:14:38;;;;;;;11.67;9.40;;;;;;;11.63;84.49;98720.84;2181758;80;21055;-78
2021/06/13 02:17:39;;;;;;;10.90;9.60;;;;;;;11.61;84.85;98729.11;2191950;81;20959;-78
2021/06/13 02:20:40;;;;;;;9.73;8.73;;;;;;;11.59;85.13;98724.30;2192291;81;20962;-78
2021/06/13 02:23:42;;;;;;;16.17;8.80;;;;;;;11.60;84.86;98725.62;2192255;81;20975;-78
2021/06/13 02:26:43;;;;;;;9.43;8.53;;;;;;;11.57;84.65;98728.22;2192217;81;21007;-78
2021/06/13 02:29:44;;;;;;;12.23;8.67;;;;;;;11.55;84.13;98731.25;2192137;81;21355;-78
2021/06/13 02:32:45;;;;;;;13.27;8.70;;;;;;;11.53;84.20;98736.91;2192158;81;21303;-78
2021/06/13 02:35:45;;;;;;;16.90;8.17;;;;;;;11.52;84.03;98736.89;2192123;81;20987;-78
2021/06/13 02:38:47;;;;;;;9.43;7.93;;;;;;;11.51;83.83;98736.45;2192117;81;21291;-78
2021/06/13 02:41:47;;;;;;;15.00;8.77;;;;;;;11.52;83.60;98740.81;2192241;81;20951;-78
2021/06/13 02:44:48;;;;;;;14.95;8.30;;;;;;;11.49;83.51;98745.16;2192607;81;21339;-77
2021/06/13 02:47:49;;;;;;;11.93;8.30;;;;;;;11.45;83.67;98750.36;2192731;81;21355;-77
2021/06/13 02:50:50;;;;;;;10.93;7.90;;;;;;;11.42;83.63;98749.91;2192678;81;21327;-76
2021/06/13 02:53:52;;;;;;;13.80;8.60;;;;;;;11.39;83.43;98751.19;2192340;81;21003;-77
2021/06/13 02:56:54;;;;;;;13.73;8.70;;;;;;;11.37;83.54;98761.19;2192626;81;21012;-76
2021/06/13 02:59:55;;;;;;;15.23;8.67;;;;;;;11.38;83.62;98757.71;2192616;81;21004;-77
2021/06/13 03:02:56;;;;;;;12.23;9.07;;;;;;;11.38;83.37;98760.33;2192617;81;20971;-77
2021/06/13 03:05:57;;;;;;;11.30;7.50;;;;;;;11.42;83.61;98759.05;2192432;81;21371;-77
2021/06/13 03:08:58;;;;;;;15.00;9.20;;;;;;;11.47;83.50;98765.19;2192492;81;21295;-77
2021/06/13 03:11:59;;;;;;;16.67;8.27;;;;;;;11.54;83.80;98766.53;2192401;81;21303;-78
2021/06/13 03:15:00;;;;;;;13.07;8.00;;;;;;;11.62;83.62;98774.87;2182659;80;20995;-79
2021/06/13 03:18:01;;;;;;;17.60;8.00;;;;;;;11.68;83.37;98770.11;2169312;82;20936;-77
2021/06/13 03:21:02;;;;;;;14.00;8.05;;;;;;;11.74;83.37;98768.84;2169417;82;21027;-78
2021/06/13 03:24:03;;;;;;;13.80;7.28;;;;;;;11.79;83.33;98778.93;2169026;82;21320;-78
2021/06/13 03:27:04;;;;;;;17.17;7.67;;;;;;;11.80;83.38;98781.55;2169075;82;21300;-79
2021/06/13 03:30:05;;;;;;;10.50;6.90;;;;;;;11.87;83.07;98785.52;2168909;82;21340;-78
2021/06/13 03:33:06;;;;;;;9.58;7.08;;;;;;;11.99;82.91;98785.58;2169212;82;20992;-80
2021/06/13 03:36:07;;;;;;;10.38;7.00;;;;;;;12.11;82.29;98789.56;2169463;82;20972;-78
2021/06/13 03:39:08;;;;;;;10.58;6.45;;;;;;;12.17;81.92;98787.01;2168719;82;20964;-79
2021/06/13 03:42:09;;;;;;;9.48;6.75;;;;;;;12.17;81.66;98790.06;2168857;82;21293;-78
2021/06/13 03:45:10;;;;;;;15.88;7.05;;;;;;;12.17;81.85;98796.59;2168799;81;21043;-78
2021/06/13 03:48:11;;;;;;;12.45;6.72;;;;;;;12.20;81.62;98812.31;2168926;82;20992;-77
2021/06/13 03:51:12;;;;;;;10.95;6.53;;;;;;;12.23;81.44;98813.20;2168979;82;20940;-78
2021/06/13 03:54:13;;;;;;;10.95;6.22;;;;;;;12.25;81.26;98818.02;2168977;82;21328;-78
2021/06/13 03:57:14;;;;;;;11.75;6.60;;;;;;;12.21;81.21;98813.63;2168861;82;21336;-78
2021/06/13 04:00:15;;;;;;;17.77;6.47;;;;;;;12.26;81.03;98820.20;2169167;82;20973;-79
2021/06/13 04:03:17;;;;;;;9.70;6.95;;;;;;;12.28;80.65;98825.88;2168993;82;20968;-79
2021/06/13 04:06:18;;;;;;;10.93;6.28;;;;;;;12.31;80.39;98826.33;2169124;82;20940;-81
2021/06/13 04:09:19;;;;;;;14.03;7.25;;;;;;;12.28;81.01;98822.39;2169301;82;20952;-81
2021/06/13 04:12:21;;;;;;;13.43;6.10;;;;;;;12.42;79.66;98828.55;2169013;82;20956;-79
2021/06/13 04:15:22;;;;;;;12.65;6.62;;;;;;;12.42;79.08;98832.48;2168495;81;20996;-79
2021/06/13 04:18:23;;;;;;;11.05;6.78;;;;;;;12.50;78.48;98839.93;2168939;82;20941;-79
2021/06/13 04:21:24;;;;;;;11.53;6.95;;;;;;;12.54;77.37;98823.36;2168896;82;20973;-80
2021/06/13 04:24:25;;;;;;;11.05;7.20;;;;;;;12.53;77.42;98837.77;2169168;82;21281;-79
2021/06/13 04:27:26;;;;;;;11.08;7.37;;;;;;;12.61;76.94;98834.73;2169268;82;21368;-79
2021/06/13 04:30:27;;;;;;;11.88;7.03;;;;;;;12.78;76.66;98833.48;2169869;82;21293;-82
2021/06/13 04:33:28;;;;;;;12.43;7.17;;;;;;;13.28;77.17;98842.81;2169924;82;20981;-80
2021/06/13 04:36:29;;;;;;;10.98;6.60;;;;;;;13.73;75.37;98849.81;2169480;82;20947;-81
2021/06/13 04:39:30;;;;;;;12.47;6.70;;;;;;;14.07;74.56;98840.61;2169951;82;20932;-82
2021/06/13 04:42:31;;;;;;;9.23;5.70;;;;;;;14.27;73.46;98847.55;2169765;82;20977;-81
2021/06/13 04:45:33;;;;;;;14.70;6.78;;;;;;;14.53;71.89;98853.19;2169781;81;21109;-81
2021/06/13 04:48:34;;;;;;;13.22;5.50;;;;;;;14.65;71.53;98843.50;2169714;82;20932;-81
2021/06/13 04:51:36;;;;;;;14.20;5.72;;;;;;;14.94;69.43;98843.83;2169822;82;20897;-82
2021/06/13 04:54:37;;;;;;;9.88;6.03;;;;;;;14.85;68.21;98853.08;2169613;82;21292;-81
2021/06/13 04:57:38;;;;;;;14.58;6.42;;;;;;;14.77;68.45;98878.52;2169795;82;20877;-81
2021/06/13 05:00:40;;;;;;;12.95;5.50;;;;;;;14.64;68.51;98856.64;2169458;82;20976;-80
2021/06/13 05:03:41;;;;;;;11.95;6.15;;;;;;;14.62;67.43;98854.47;2170517;82;20897;-80
2021/06/13 05:06:42;;;;;;;12.15;5.37;;;;;;;14.73;68.12;98863.61;2170558;82;20971;-81
2021/06/13 05:09:44;;;;;;;9.00;4.50;;;;;;;14.95;66.83;98852.14;2169621;82;20972;-82
2021/06/13 05:12:45;;;;;;;10.03;4.80;;;;;;;14.76;65.73;98871.52;2169410;82;21193;-80
2021/06/13 05:15:46;;;;;;;7.80;4.85;;;;;;;14.47;66.17;98867.66;2180638;81;20999;-81
2021/06/13 05:18:47;;;;;;;7.40;4.75;;;;;;;14.32;67.40;98869.42;2192792;81;20972;-81
2021/06/13 05:21:48;;;;;;;8.05;5.17;;;;;;;14.18;67.46;98867.70;2192623;81;20935;-79
2021/06/13 05:24:49;;;;;;;11.10;4.78;;;;;;;13.86;67.61;98883.47;2192546;81;20924;-80
2021/06/13 05:27:50;;;;;;;15.72;5.28;;;;;;;13.86;67.61;98883.47;2192583;81;20923;-80
2021/06/13 05:30:51;;;;;;;12.43;5.12;;;;;;;13.72;67.35;98882.16;2192785;81;20932;-81
2021/06/13 05:33:52;;;;;;;8.08;4.72;;;;;;;13.60;67.35;98888.72;2192656;81;20976;-80
2021/06/13 05:36:53;;;;;;;17.20;5.15;;;;;;;13.77;67.14;98886.97;2192518;81;20959;-80
2021/06/13 05:39:54;;;;;;;10.78;4.78;;;;;;;13.92;67.30;98889.62;2192712;81;20927;-80
2021/06/13 05:42:55;;;;;;;8.05;4.60;;;;;;;14.02;67.02;98894.42;2192704;81;20963;-80
2021/06/13 05:45:58;;;;;;;11.48;5.00;;;;;;;14.07;65.97;98895.72;2192437;80;20991;-80
2021/06/13 05:48:59;;;;;;;8.88;4.80;;;;;;;13.95;66.36;98909.73;2192749;81;21375;-79
2021/06/13 05:52:00;;;;;;;10.20;4.95;;;;;;;14.01;66.50;98906.66;2192659;81;21366;-80
2021/06/13 05:55:01;;;;;;;16.15;5.30;;;;;;;14.00;66.53;98907.54;2192511;81;20934;-80
2021/06/13 05:58:02;;;;;;;7.62;4.40;;;;;;;14.05;66.51;98915.41;2192633;81;21376;-80
2021/06/13 06:01:03;;;;;;;14.53;4.92;;;;;;;14.01;66.83;98909.29;2192569;81;20907;-81
2021/06/13 06:04:04;;;;;;;11.60;4.62;;;;;;;14.12;65.95;98913.22;2192577;81;20971;-80
2021/06/13 06:07:05;;;;;;;10.45;4.83;;;;;;;14.28;65.82;98919.31;2192629;81;20951;-81
2021/06/13 06:10:06;;;;;;;11.22;4.25;;;;;;;14.38;65.47;98913.17;2192661;81;21331;-80
2021/06/13 06:13:07;;;;;;;10.08;4.17;;;;;;;15.01;63.39;98913.01;2192665;81;20960;-80
2021/06/13 06:16:08;;;;;;;9.28;4.08;;;;;;;15.13;62.73;98917.77;2192155;80;21420;-80
2021/06/13 06:19:09;;;;;;;7.08;3.83;;;;;;;14.94;61.78;98910.84;2192732;81;20939;-80
2021/06/13 06:22:10;;;;;;;10.30;4.05;;;;;;;14.94;61.78;98910.84;2192710;81;20939;-81
2021/06/13 06:25:11;;;;;;;12.65;3.83;;;;;;;14.92;62.67;98917.86;2193045;81;20940;-81
2021/06/13 06:28:12;;;;;;;9.45;3.77;;;;;;;15.13;62.60;98912.50;2192835;81;21000;-81
2021/06/13 06:31:13;;;;;;;8.50;3.87;;;;;;;15.29;62.36;98924.69;2192836;81;20931;-81
2021/06/13 06:34:13;;;;;;;9.58;3.50;;;;;;;15.16;60.06;98917.75;2192935;81;21423;-80
2021/06/13 06:37:15;;;;;;;7.47;3.72;;;;;;;14.99;61.00;98919.59;2192395;81;21007;-80
2021/06/13 06:40:16;;;;;;;10.15;3.60;;;;;;;14.87;62.00;98929.71;2192980;81;20951;-81
2021/06/13 06:43:17;;;;;;;14.38;4.40;;;;;;;14.81;62.22;98931.05;2192793;81;20904;-81
2021/06/13 06:46:18;;;;;;;11.10;4.12;;;;;;;14.56;62.65;98943.36;2192769;80;21442;-81
2021/06/13 06:49:19;;;;;;;10.85;4.05;;;;;;;14.33;63.33;98935.50;2192744;81;20943;-80
2021/06/13 06:52:20;;;;;;;11.95;4.53;;;;;;;14.40;63.73;98938.98;2192776;81;20884;-80
2021/06/13 06:55:21;;;;;;;8.93;3.72;;;;;;;15.01;63.27;98928.78;2192800;81;20959;-80
2021/06/13 06:58:22;;;;;;;9.90;4.35;;;;;;;15.61;61.04;98924.98;2192870;81;20928;-80
2021/06/13 07:01:23;;;;;;;11.97;4.35;;;;;;;15.66;59.43;98938.98;2192770;81;20927;-81
2021/06/13 07:04:24;;;;;;;9.45;3.70;;;;;;;15.46;58.89;98927.65;2192845;81;20939;-80
2021/06/13 07:07:26;;;;;;;8.25;4.00;;;;;;;14.94;59.63;98938.45;2170825;81;20931;-81
2021/06/13 07:10:27;;;;;;;9.40;3.92;;;;;;;14.67;61.38;98932.81;2192779;81;20927;-81
2021/06/13 07:13:28;;;;;;;12.45;4.30;;;;;;;14.38;61.32;98949.06;2192878;81;20968;-80
2021/06/13 07:16:30;;;;;;;9.83;4.60;;;;;;;14.07;61.86;98953.47;2179929;80;21000;-80
2021/06/13 07:19:31;;;;;;;13.78;4.85;;;;;;;13.82;62.83;98952.56;2169105;82;20940;-80
2021/06/13 07:22:31;;;;;;;13.62;4.12;;;;;;;13.76;63.67;98959.11;2168916;82;20975;-80
2021/06/13 07:25:32;;;;;;;6.58;3.87;;;;;;;13.72;63.61;98958.23;2169262;82;20968;-80
2021/06/13 07:28:34;;;;;;;10.05;4.17;;;;;;;13.80;63.54;98968.73;2169122;82;20971;-79
2021/06/13 07:31:34;;;;;;;10.90;4.10;;;;;;;13.87;63.06;98972.71;2169103;82;20960;-79
2021/06/13 07:34:35;;;;;;;10.72;4.53;;;;;;;14.00;62.62;98968.34;2168935;82;20944;-79
2021/06/13 07:37:36;;;;;;;10.15;4.47;;;;;;;14.18;62.12;98976.65;2168649;82;20972;-80
2021/06/13 07:40:38;;;;;;;11.73;4.15;;;;;;;14.43;62.23;98977.53;2169126;82;20943;-79
2021/06/13 07:43:39;;;;;;;9.30;4.50;;;;;;;14.70;62.43;98977.91;2169071;82;20976;-79
2021/06/13 07:46:40;;;;;;;9.08;3.95;;;;;;;15.04;60.95;98975.64;2169236;81;20991;-80
2021/06/13 07:49:41;;;;;;;8.45;4.35;;;;;;;15.63;59.37;98981.55;2169516;82;20956;-80
2021/06/13 07:52:42;;;;;;;7.08;3.95;;;;;;;16.21;58.58;98977.59;2169496;82;20937;-80
2021/06/13 07:55:43;;;;;;;9.80;3.70;;;;;;;16.93;54.93;98992.74;2169516;82;20940;-81
2021/06/13 07:58:44;;;;;;;8.15;3.77;;;;;;;16.69;54.50;98989.93;2169612;82;21080;-81
2021/06/13 08:01:45;;;;;;;9.13;3.42;;;;;;;16.34;55.38;98999.42;2169690;82;20944;-81
2021/06/13 08:04:54;;;;;;;9.23;3.40;;;;;;;15.85;55.99;99009.02;2169566;82;21344;-80
2021/06/13 08:07:49;;;;;;;8.33;3.37;;;;;;;15.65;56.83;99010.03;2168514;82;21027;-81
2021/06/13 08:10:50;;;;;;;10.78;3.55;;;;;;;15.58;57.32;99007.84;2169497;82;21324;-80
2021/06/13 08:13:51;;;;;;;9.30;3.70;;;;;;;15.60;56.88;99019.23;2169525;82;21332;-80
2021/06/13 08:16:53;;;;;;;4.92;3.47;;;;;;;15.50;56.55;99008.30;2169176;82;21048;-81
2021/06/13 08:19:54;;;;;;;10.50;3.77;;;;;;;16.39;57.70;99012.55;2169466;82;21343;-80
2021/06/13 08:22:55;;;;;;;7.17;3.62;;;;;;;16.39;57.70;99012.55;2169092;82;21402;-80
2021/06/13 08:25:56;;;;;;;9.45;3.50;;;;;;;16.49;55.42;99015.57;2169455;82;20964;-80
2021/06/13 08:28:59;;;;;;;8.65;3.75;;;;;;;15.88;55.89;99025.23;2169328;82;20960;-81
2021/06/13 08:31:59;;;;;;;15.05;3.87;;;;;;;15.45;56.80;99031.13;2169268;82;21008;-79
2021/06/13 08:35:01;;;;;;;7.87;3.37;;;;;;;15.36;56.41;99041.69;2169469;82;20988;-80
2021/06/13 08:38:03;;;;;;;10.20;4.20;;;;;;;15.43;57.27;99041.66;2169369;82;20906;-80
2021/06/13 08:41:04;;;;;;;8.03;3.87;;;;;;;15.63;57.09;99042.94;2169608;82;20924;-80
2021/06/13 08:44:06;;;;;;;9.38;3.40;;;;;;;16.19;56.44;99044.33;2169300;82;20909;-80
2021/06/13 08:47:07;;;;;;;7.40;3.37;;;;;;;16.52;56.18;99033.98;2169316;81;21016;-80
2021/06/13 08:50:08;;;;;;;8.00;3.27;;;;;;;16.98;53.76;99038.39;2169395;82;20997;-81
2021/06/13 08:53:09;;;;;;;9.65;3.30;;;;;;;16.98;53.51;99042.34;2169455;82;20976;-80
2021/06/13 08:56:10;;;;;;;9.73;3.30;;;;;;;16.78;53.54;99044.31;2169490;82;20951;-80
2021/06/13 08:59:11;;;;;;;13.15;3.10;;;;;;;16.51;53.33;99044.97;2169359;82;20940;-80
2021/06/13 09:02:12;;;;;;;8.43;3.70;;;;;;;16.63;53.97;99041.34;2169466;82;20936;-81
2021/06/13 09:05:13;;;;;;;6.95;3.33;;;;;;;17.02;52.61;99048.02;2169445;82;21309;-79
2021/06/13 09:08:14;;;;;;;9.23;3.52;;;;;;;17.13;52.23;99037.34;2169423;82;20928;-80
2021/06/13 09:11:15;;;;;;;8.93;3.55;;;;;;;17.18;51.43;99032.44;2169140;82;21368;-78
2021/06/13 09:14:16;;;;;;;11.65;3.85;;;;;;;16.97;52.91;99036.64;2169582;82;21009;-80
2021/06/13 09:17:17;;;;;;;7.83;3.95;;;;;;;16.82;52.33;99043.40;2183753;81;21347;-81
2021/06/13 09:20:24;;;;;;;10.98;4.83;;;;;;;16.94;50.79;99049.86;2192575;81;21415;-80
2021/06/13 09:23:24;;;;;;;8.65;3.30;;;;;;;17.49;52.24;99048.80;2192348;81;20986;-80
2021/06/13 09:26:25;;;;;;;7.35;3.50;;;;;;;17.69;50.02;99050.34;2192655;81;21015;-80
2021/06/13 09:29:26;;;;;;;9.50;3.70;;;;;;;17.54;50.69;99055.79;2192619;81;20939;-82
2021/06/13 09:32:27;;;;;;;9.53;3.05;;;;;;;17.50;49.66;99061.55;2192486;81;20900;-78
2021/06/13 09:35:29;;;;;;;15.18;3.55;;;;;;;17.89;49.46;99064.59;2192462;81;21015;-80
2021/06/13 09:38:30;;;;;;;15.45;3.62;;;;;;;17.81;49.22;99063.37;2192934;81;21320;-80
2021/06/13 09:41:32;;;;;;;12.18;3.70;;;;;;;17.30;49.36;99068.80;2192626;81;20968;-80
2021/06/13 09:44:35;;;;;;;7.50;2.90;;;;;;;16.85;49.56;99064.45;2192280;81;21067;-81
2021/06/13 09:47:37;;;;;;;7.35;3.05;;;;;;;17.09;50.14;99065.52;2192398;80;21043;-80
2021/06/13 09:50:38;;;;;;;7.83;3.05;;;;;;;18.02;48.04;99058.23;2192604;81;21375;-79
2021/06/13 09:53:39;;;;;;;12.63;3.40;;;;;;;18.05;48.11;99056.42;2192478;81;20974;-79
2021/06/13 09:56:40;;;;;;;7.10;3.17;;;;;;;18.31;48.47;99059.14;2192686;81;20916;-79
2021/06/13 09:59:41;;;;;;;14.38;3.67;;;;;;;18.48;46.58;99072.09;2193124;81;21304;-80
2021/06/13 10:02:43;;;;;;;11.65;3.25;;;;;;;18.20;47.25;99061.05;2192752;81;20947;-79
2021/06/13 10:05:44;;;;;;;6.67;3.30;;;;;;;18.01;46.07;99095.66;2192690;81;21019;-80
2021/06/13 10:08:45;;;;;;;6.53;3.62;;;;;;;18.10;46.51;99086.28;2192857;81;20931;-80
2021/06/13 10:11:46;;;;;;;6.85;3.85;;;;;;;17.80;46.53;99087.59;2192484;81;21331;-81
2021/06/13 10:14:48;;;;;;;9.05;3.42;;;;;;;17.62;47.93;99083.83;2192709;81;20948;-81
2021/06/13 10:17:49;;;;;;;9.18;3.17;;;;;;;17.51;47.36;99097.16;2175489;81;21071;-81
2021/06/13 10:20:50;;;;;;;6.28;2.98;;;;;;;17.96;45.46;99107.19;2169500;82;20971;-80
2021/06/13 10:23:52;;;;;;;10.05;3.25;;;;;;;17.78;46.02;99102.58;2169627;82;20904;-80
2021/06/13 10:26:52;;;;;;;9.03;3.17;;;;;;;17.63;46.88;99096.14;2169493;82;20967;-80
2021/06/13 10:29:55;;;;;;;7.83;3.02;;;;;;;17.73;46.88;99096.48;2169527;82;20932;-80
2021/06/13 10:32:56;;;;;;;6.83;3.25;;;;;;;17.94;46.29;99086.53;2169472;82;21425;-81
2021/06/13 10:36:01;;;;;;;8.88;3.20;;;;;;;18.14;46.58;99088.44;2169461;82;20960;-80
2021/06/13 10:38:59;;;;;;;8.93;3.25;;;;;;;18.21;46.29;99101.14;2169051;82;21024;-81
2021/06/13 10:42:00;;;;;;;9.18;3.27;;;;;;;18.35;45.65;99097.39;2169254;82;20944;-80
2021/06/13 10:45:01;;;;;;;10.23;3.50;;;;;;;18.29;46.42;99100.58;2169625;82;20956;-80
2021/06/13 10:48:02;;;;;;;8.98;4.22;;;;;;;18.35;46.79;99104.00;2169363;82;20964;-80
2021/06/13 10:51:03;;;;;;;9.90;3.00;;;;;;;18.42;45.79;99106.09;2169546;82;20937;-80
2021/06/13 10:54:04;;;;;;;10.20;3.05;;;;;;;18.64;46.19;99107.53;2169544;82;21023;-81
2021/06/13 10:57:05;;;;;;;7.92;3.80;;;;;;;18.80;45.33;99098.89;2169952;82;20940;-79
2021/06/13 11:00:06;;;;;;;7.90;3.10;;;;;;;19.05;44.78;99104.62;2169783;82;21150;-81
2021/06/13 11:03:07;;;;;;;11.83;2.95;;;;;;;18.78;45.43;99112.59;2169521;82;21265;-80
2021/06/13 11:06:08;;;;;;;7.42;3.83;;;;;;;18.55;44.39;99126.60;2169387;82;21313;-81
2021/06/13 11:09:11;;;;;;;12.25;5.00;;;;;;;18.61;44.93;99110.64;2169590;82;20917;-80
2021/06/13 11:12:11;;;;;;;14.90;3.67;;;;;;;18.62;45.41;99120.35;2169331;82;20985;-80
2021/06/13 11:15:13;;;;;;;8.10;2.95;;;;;;;18.53;45.82;99112.53;2169602;82;20956;-80
2021/06/13 11:18:14;;;;;;;10.88;3.42;;;;;;;18.50;47.16;99117.87;2169207;81;21055;-81
2021/06/13 11:21:15;;;;;;;9.30;3.37;;;;;;;18.57;45.70;99115.55;2169324;82;21000;-81
2021/06/13 11:24:16;;;;;;;10.38;3.62;;;;;;;18.51;45.02;99136.80;2169524;82;20952;-80
2021/06/13 11:27:17;;;;;;;5.50;2.90;;;;;;;18.51;44.83;99116.97;2169524;82;20940;-81
2021/06/13 11:30:18;;;;;;;8.23;3.42;;;;;;;18.74;45.49;99119.70;2169669;82;20947;-81
2021/06/13 11:33:19;;;;;;;7.37;3.00;;;;;;;18.76;44.82;99123.19;2169619;82;20980;-81
2021/06/13 11:36:23;;;;;;;6.17;3.08;;;;;;;18.69;44.85;99106.13;2169535;82;20984;-81
2021/06/13 11:39:24;;;;;;;8.75;3.10;;;;;;;18.76;45.52;99123.64;2169396;82;21105;-80
2021/06/13 11:42:25;;;;;;;16.62;3.33;;;;;;;18.67;45.91;99124.66;2169353;82;20947;-80
2021/06/13 11:45:26;;;;;;;7.50;3.30;;;;;;;18.39;46.02;99124.64;2169222;82;21017;-80
2021/06/13 11:48:27;;;;;;;12.63;3.45;;;;;;;18.33;46.27;99135.30;2169070;81;20972;-79
2021/06/13 11:51:28;;;;;;;6.92;3.60;;;;;;;18.30;46.09;99138.87;2169341;82;20964;-80
2021/06/13 11:54:29;;;;;;;9.08;3.33;;;;;;;18.44;44.99;99151.88;2169545;82;20913;-81
2021/06/13 11:57:30;;;;;;;12.10;3.10;;;;;;;18.46;45.13;99133.78;2169541;82;20908;-81
2021/06/13 12:00:31;;;;;;;8.40;3.37;;;;;;;18.61;44.80;99134.44;2169533;82;21331;-80
2021/06/13 12:03:32;;;;;;;7.45;3.22;;;;;;;18.35;44.91;99151.56;2169336;82;20929;-80
2021/06/13 12:06:33;;;;;;;11.00;3.80;;;;;;;18.06;45.65;99132.58;2169455;82;21003;-80
2021/06/13 12:09:34;;;;;;;8.25;3.37;;;;;;;17.92;46.21;99142.45;2169464;82;20980;-79
2021/06/13 12:12:35;;;;;;;11.60;3.62;;;;;;;17.86;46.53;99145.17;2169536;82;21376;-81
2021/06/13 12:15:36;;;;;;;7.75;3.35;;;;;;;17.91;47.21;99128.82;2169420;82;20952;-80
2021/06/13 12:18:38;;;;;;;10.48;3.67;;;;;;;17.76;46.98;99155.84;2188010;81;21406;-81
2021/06/13 12:21:38;;;;;;;11.35;3.55;;;;;;;17.85;47.53;99154.86;2192590;81;20979;-82
2021/06/13 12:27:46;;;;;;;7.37;3.45;;;;;;;18.32;45.92;99150.29;2171422;81;20979;-81
2021/06/13 12:30:48;;;;;;;12.55;3.40;;;;;;;18.60;44.58;99146.78;2192826;81;21024;-80
2021/06/13 12:33:49;;;;;;;10.13;3.35;;;;;;;18.66;45.24;99149.81;2192619;81;20996;-81
2021/06/13 12:36:50;;;;;;;9.28;3.55;;;;;;;18.51;45.15;99151.34;2192648;81;20935;-81
2021/06/13 12:39:51;;;;;;;11.63;3.27;;;;;;;18.79;44.64;99159.30;2192795;81;21347;-78
2021/06/13 12:42:52;;;;;;;8.03;3.47;;;;;;;19.00;43.81;99150.13;2193197;81;21308;-80
2021/06/13 12:45:53;;;;;;;12.70;3.35;;;;;;;19.05;43.46;99141.20;2192601;81;21316;-80
2021/06/13 12:48:53;;;;;;;9.48;3.10;;;;;;;19.35;42.75;99146.87;2192244;80;21343;-81
2021/06/13 12:51:54;;;;;;;8.30;3.35;;;;;;;19.49;43.43;99144.84;2192620;81;21343;-81
2021/06/13 12:54:56;;;;;;;7.03;3.40;;;;;;;19.19;42.74;99147.61;2192730;81;21022;-81
2021/06/13 12:57:57;;;;;;;11.30;3.27;;;;;;;18.75;43.94;99150.98;2192719;81;20951;-81
2021/06/13 13:00:58;;;;;;;8.30;3.65;;;;;;;18.44;44.44;99167.29;2192642;81;21396;-82
2021/06/13 13:04:01;;;;;;;8.50;3.10;;;;;;;18.62;44.29;99147.66;2192654;81;20967;-82
2021/06/13 13:07:02;;;;;;;10.68;3.02;;;;;;;18.64;44.32;99144.55;2192567;81;21019;-81
2021/06/13 13:10:03;;;;;;;8.55;3.50;;;;;;;18.51;44.72;99159.27;2192621;81;20931;-81
2021/06/13 13:13:06;;;;;;;9.28;3.83;;;;;;;18.57;45.06;99166.66;2192650;81;20920;-81
2021/06/13 13:16:06;;;;;;;12.93;3.27;;;;;;;18.54;45.35;99160.55;2192469;80;21303;-81
2021/06/13 13:19:08;;;;;;;7.60;2.80;;;;;;;18.63;44.77;99165.72;2177670;81;21375;-80
2021/06/13 13:22:09;;;;;;;6.67;2.70;;;;;;;18.72;44.60;99168.22;2176206;82;21031;-80
2021/06/13 13:25:10;;;;;;;6.15;3.30;;;;;;;18.86;42.96;99165.35;2176027;82;20952;-81
2021/06/13 13:28:11;;;;;;;8.90;3.15;;;;;;;18.77;43.45;99177.83;2176390;82;21335;-82
2021/06/13 13:31:12;;;;;;;11.22;3.70;;;;;;;18.51;43.41;99179.09;2176680;81;20968;-81
2021/06/13 13:34:13;;;;;;;8.03;2.95;;;;;;;18.32;44.26;99159.54;2176670;82;20916;-82
2021/06/13 13:37:14;;;;;;;10.93;3.10;;;;;;;18.27;45.04;99163.14;2176586;82;20897;-80
2021/06/13 13:40:15;;;;;;;13.22;3.00;;;;;;;18.27;45.04;99163.14;2176754;82;20916;-81
2021/06/13 13:43:17;;;;;;;7.12;2.75;;;;;;;18.28;44.93;99170.17;2176548;82;20928;-81
2021/06/13 13:46:18;;;;;;;8.03;3.20;;;;;;;18.37;44.62;99159.02;2176532;80;21213;-81
2021/06/13 13:49:20;;;;;;;13.98;3.95;;;;;;;18.26;44.96;99180.77;2176322;82;20925;-81
2021/06/13 13:52:21;;;;;;;14.45;3.10;;;;;;;18.19;44.44;99161.89;2176358;82;21310;-80
2021/06/13 13:55:22;;;;;;;7.22;2.80;;;;;;;18.19;44.57;99159.25;2176575;82;20984;-81
2021/06/13 13:58:24;;;;;;;11.45;3.12;;;;;;;18.05;45.08;99155.92;2176596;82;20975;-82
2021/06/13 14:01:25;;;;;;;6.40;3.58;;;;;;;18.25;44.05;99158.33;2176793;82;20937;-83
2021/06/13 14:04:26;;;;;;;6.17;2.80;;;;;;;18.66;43.26;99151.13;2176592;82;20967;-80
2021/06/13 14:07:30;;;;;;;10.28;3.62;;;;;;;18.92;43.05;99150.70;2176693;81;20936;-81
2021/06/13 14:10:29;;;;;;;8.75;3.27;;;;;;;19.29;43.04;99142.57;2176255;82;20975;-82